createdAt,value
2018-06-24T00:01:11.371Z,12.10
2018-06-24T00:03:39.248Z,12.10
2018-06-24T00:06:07.050Z,12.10
2018-06-24T00:08:34.768Z,12.10
2018-06-24T00:11:02.988Z,12.20
2018-06-24T00:13:30.665Z,12.30
2018-06-24T00:15:58.939Z,12.30
2018-06-24T00:18:26.778Z,12.40
2018-06-24T00:20:54.531Z,12.40
2018-06-24T00:23:22.412Z,12.40
2018-06-24T00:25:51.178Z,12.40
2018-06-24T00:28:18.961Z,12.40
2018-06-24T00:30:46.704Z,12.40
2018-06-24T00:33:14.397Z,12.40
2018-06-24T00:35:42.198Z,12.50
2018-06-24T00:38:10.020Z,12.40
2018-06-24T00:40:38.312Z,12.40
2018-06-24T00:43:06.081Z,12.50
2018-06-24T00:45:33.803Z,12.40
2018-06-24T00:48:01.662Z,12.50
2018-06-24T00:50:29.435Z,12.40
2018-06-24T00:52:57.230Z,12.40
2018-06-24T00:55:24.929Z,12.30
2018-06-24T00:57:52.694Z,12.40
2018-06-24T01:00:20.482Z,12.40
2018-06-24T01:02:48.270Z,12.50
2018-06-24T01:05:16.257Z,12.40
2018-06-24T01:07:45.147Z,12.40
2018-06-24T01:10:12.958Z,12.40
2018-06-24T01:12:41.196Z,12.30
2018-06-24T01:15:09.111Z,12.30
2018-06-24T01:17:36.867Z,12.30
2018-06-24T01:20:05.108Z,12.30
2018-06-24T01:22:33.003Z,12.40
2018-06-24T01:25:00.709Z,12.40
2018-06-24T01:27:28.514Z,12.40
2018-06-24T01:29:56.201Z,12.40
2018-06-24T01:32:24.492Z,12.40
2018-06-24T01:34:52.528Z,12.50
2018-06-24T01:37:20.310Z,12.40
2018-06-24T01:39:48.091Z,12.40
2018-06-24T01:42:15.834Z,12.50
2018-06-24T01:44:43.581Z,12.50
2018-06-24T01:47:11.305Z,12.50
2018-06-24T01:49:39.024Z,12.50
2018-06-24T01:52:06.833Z,12.50
2018-06-24T01:54:34.595Z,12.50
2018-06-24T01:57:02.453Z,12.50
2018-06-24T01:59:30.275Z,12.40
2018-06-24T02:01:58.040Z,12.40
2018-06-24T02:04:25.850Z,12.40
2018-06-24T02:06:53.560Z,12.40
2018-06-24T02:11:48.920Z,12.40
2018-06-24T02:14:16.596Z,12.40
2018-06-24T02:16:44.362Z,12.40
2018-06-24T02:19:12.191Z,12.40
2018-06-24T02:21:40.568Z,12.40
2018-06-24T02:24:08.542Z,12.40
2018-06-24T02:26:36.521Z,12.40
2018-06-24T02:29:04.288Z,12.40
2018-06-24T02:31:32.131Z,12.40
2018-06-24T02:33:59.912Z,12.30
2018-06-24T02:36:27.722Z,12.30
2018-06-24T02:38:55.553Z,12.30
2018-06-24T02:41:23.522Z,12.20
2018-06-24T02:43:51.247Z,12.30
2018-06-24T02:46:19.033Z,12.30
2018-06-24T02:48:46.816Z,12.30
2018-06-24T02:51:14.522Z,12.30
2018-06-24T02:53:42.255Z,12.30
2018-06-24T02:56:09.975Z,12.30
2018-06-24T02:58:37.815Z,12.30
2018-06-24T03:03:33.067Z,12.30
2018-06-24T03:06:01.055Z,12.40
2018-06-24T03:08:28.897Z,12.40
2018-06-24T03:10:56.645Z,12.30
2018-06-24T03:13:24.463Z,12.30
2018-06-24T03:15:52.183Z,12.30
2018-06-24T03:18:19.912Z,12.30
2018-06-24T03:20:47.720Z,12.30
2018-06-24T03:23:15.605Z,12.40
2018-06-24T03:25:43.301Z,12.30
2018-06-24T03:28:11.240Z,12.30
2018-06-24T03:30:39.068Z,12.30
2018-06-24T03:33:06.827Z,12.30
2018-06-24T03:35:34.742Z,12.30
2018-06-24T03:38:02.511Z,12.30
2018-06-24T03:40:30.220Z,12.30
2018-06-24T03:42:57.985Z,12.30
2018-06-24T03:45:25.795Z,12.40
2018-06-24T03:47:53.486Z,12.40
2018-06-24T03:50:21.361Z,12.40
2018-06-24T03:52:49.085Z,12.40
2018-06-24T03:55:17.055Z,12.40
2018-06-24T04:00:12.447Z,12.50
2018-06-24T04:02:40.212Z,12.50
2018-06-24T04:05:08.216Z,12.50
2018-06-24T04:07:35.927Z,12.60
2018-06-24T04:10:03.656Z,12.60
2018-06-24T04:12:32.907Z,12.60
2018-06-24T04:15:00.655Z,12.70
2018-06-24T04:17:34.908Z,12.70
2018-06-24T04:20:02.626Z,12.80
2018-06-24T04:22:30.417Z,12.70
2018-06-24T04:24:58.185Z,12.80
2018-06-24T04:27:25.899Z,12.80
2018-06-24T04:29:53.630Z,12.80
2018-06-24T04:32:21.375Z,12.90
2018-06-24T04:34:49.109Z,12.90
2018-06-24T04:37:16.865Z,13.00
2018-06-24T04:39:44.664Z,13.00
2018-06-24T04:42:12.399Z,13.10
2018-06-24T04:44:40.215Z,13.10
2018-06-24T04:47:08.016Z,13.20
2018-06-24T04:49:35.884Z,13.20
2018-06-24T04:52:03.730Z,13.20
2018-06-24T04:54:31.430Z,13.20
2018-06-24T04:56:59.179Z,13.20
2018-06-24T04:59:27.296Z,13.20
2018-06-24T05:01:55.010Z,13.20
2018-06-24T05:04:22.769Z,13.20
2018-06-24T05:09:18.029Z,13.30
2018-06-24T05:11:45.678Z,13.30
2018-06-24T05:14:13.557Z,13.40
2018-06-24T05:16:41.400Z,13.50
2018-06-24T05:19:09.399Z,13.60
2018-06-24T05:21:37.148Z,13.60
2018-06-24T05:24:05.014Z,13.70
2018-06-24T05:26:32.788Z,13.80
2018-06-24T05:29:00.508Z,13.90
2018-06-24T05:31:28.384Z,14.00
2018-06-24T05:33:56.338Z,14.10
2018-06-24T05:36:24.189Z,14.40
2018-06-24T05:38:51.924Z,14.30
2018-06-24T05:41:19.780Z,14.30
2018-06-24T05:43:47.502Z,14.40
2018-06-24T05:46:15.266Z,14.30
2018-06-24T05:48:43.119Z,14.30
2018-06-24T05:51:10.862Z,14.50
2018-06-24T05:53:38.701Z,14.50
2018-06-24T05:56:06.455Z,14.60
2018-06-24T05:58:34.238Z,14.60
2018-06-24T06:01:01.969Z,14.60
2018-06-24T06:03:29.645Z,14.70
2018-06-24T06:05:57.355Z,14.70
2018-06-24T06:08:25.161Z,14.70
2018-06-24T06:10:52.925Z,14.70
2018-06-24T06:13:20.620Z,14.80
2018-06-24T06:15:48.325Z,14.90
2018-06-24T06:20:43.842Z,15.00
2018-06-24T06:23:11.527Z,14.80
2018-06-24T06:25:43.675Z,14.90
2018-06-24T06:30:39.236Z,14.90
2018-06-24T06:33:07.533Z,14.80
2018-06-24T06:35:35.484Z,14.80
2018-06-24T06:38:03.254Z,14.90
2018-06-24T06:40:31.086Z,14.80
2018-06-24T06:42:58.937Z,14.80
2018-06-24T06:45:27.447Z,14.90
2018-06-24T06:47:54.975Z,14.80
2018-06-24T06:50:22.641Z,15.00
2018-06-24T06:52:50.644Z,15.10
2018-06-24T06:55:18.378Z,15.10
2018-06-24T06:57:46.592Z,15.00
2018-06-24T07:00:14.363Z,15.00
2018-06-24T07:02:42.143Z,15.00
2018-06-24T07:05:09.882Z,15.00
2018-06-24T07:07:37.705Z,15.00
2018-06-24T07:12:32.956Z,15.10
2018-06-24T07:15:00.845Z,15.10
2018-06-24T07:17:28.683Z,15.00
2018-06-24T07:19:56.387Z,14.80
2018-06-24T07:22:24.120Z,15.00
2018-06-24T07:24:52.093Z,15.20
2018-06-24T07:27:20.338Z,15.40
2018-06-24T07:29:48.041Z,15.50
2018-06-24T07:32:15.892Z,15.40
2018-06-24T07:34:43.662Z,15.30
2018-06-24T07:37:11.372Z,15.20
2018-06-24T07:39:39.096Z,15.30
2018-06-24T07:42:06.870Z,15.20
2018-06-24T07:44:34.814Z,15.20
2018-06-24T07:47:02.566Z,15.30
2018-06-24T07:49:30.417Z,15.10
2018-06-24T07:51:58.429Z,15.20
2018-06-24T07:54:26.963Z,15.20
2018-06-24T07:56:54.744Z,15.10
2018-06-24T07:59:22.632Z,15.00
2018-06-24T08:01:50.330Z,14.80
2018-06-24T08:04:18.236Z,14.60
2018-06-24T08:06:45.974Z,14.50
2018-06-24T08:09:13.814Z,14.20
2018-06-24T08:11:42.220Z,13.80
2018-06-24T08:14:10.016Z,13.70
2018-06-24T08:16:38.055Z,13.60
2018-06-24T08:19:05.862Z,13.70
2018-06-24T08:21:33.636Z,13.60
2018-06-24T08:24:01.465Z,13.60
2018-06-24T08:26:29.322Z,13.60
2018-06-24T08:28:57.119Z,13.70
2018-06-24T08:31:24.978Z,13.80
2018-06-24T08:33:52.712Z,13.90
2018-06-24T08:36:20.510Z,13.90
2018-06-24T08:38:48.246Z,14.10
2018-06-24T08:41:15.978Z,14.30
2018-06-24T08:43:43.797Z,14.50
2018-06-24T08:46:11.484Z,14.70
2018-06-24T08:48:39.311Z,14.90
2018-06-24T08:51:07.051Z,15.00
2018-06-24T08:53:34.816Z,15.00
2018-06-24T08:56:02.949Z,15.10
2018-06-24T08:58:30.755Z,15.30
2018-06-24T09:00:58.517Z,15.40
2018-06-24T09:05:53.759Z,15.40
2018-06-24T09:08:21.719Z,15.40
2018-06-24T09:10:49.941Z,15.40
2018-06-24T09:13:17.643Z,15.50
2018-06-24T09:15:45.391Z,15.50
2018-06-24T09:18:13.111Z,15.60
2018-06-24T09:20:40.798Z,15.60
2018-06-24T09:23:08.526Z,15.70
2018-06-24T09:25:37.089Z,15.80
2018-06-24T09:28:04.975Z,15.80
2018-06-24T09:30:32.688Z,15.70
2018-06-24T09:33:00.474Z,15.60
2018-06-24T09:35:28.198Z,15.50
2018-06-24T09:37:56.251Z,15.50
2018-06-24T09:40:24.388Z,15.60
2018-06-24T09:42:52.131Z,15.70
2018-06-24T09:45:19.898Z,15.90
2018-06-24T09:47:47.657Z,15.90
2018-06-24T09:50:15.638Z,16.10
2018-06-24T09:52:43.467Z,16.40
2018-06-24T09:55:11.205Z,16.50
2018-06-24T09:57:39.085Z,16.50
2018-06-24T10:00:11.264Z,16.40
2018-06-24T10:02:39.014Z,16.40
2018-06-24T10:05:06.819Z,16.60
2018-06-24T10:07:34.634Z,16.30
2018-06-24T10:10:02.391Z,16.10
2018-06-24T10:12:30.168Z,15.90
2018-06-24T10:14:57.942Z,15.70
2018-06-24T10:17:25.834Z,15.40
2018-06-24T10:19:53.601Z,14.90
2018-06-24T10:22:21.701Z,14.70
2018-06-24T10:24:49.475Z,14.70
2018-06-24T10:27:17.189Z,14.70
2018-06-24T10:29:45.109Z,14.60
2018-06-24T10:32:12.857Z,14.90
2018-06-24T10:34:40.725Z,14.90
2018-06-24T10:37:08.506Z,15.10
2018-06-24T10:39:36.233Z,15.30
2018-06-24T10:42:03.986Z,15.30
2018-06-24T10:44:31.897Z,15.50
2018-06-24T10:46:59.642Z,15.70
2018-06-24T10:49:27.376Z,16.00
2018-06-24T10:51:55.285Z,16.00
2018-06-24T10:54:23.006Z,16.00
2018-06-24T10:56:50.986Z,16.20
2018-06-24T10:59:19.194Z,16.30
2018-06-24T11:01:46.933Z,16.10
2018-06-24T11:04:14.697Z,15.70
2018-06-24T11:06:42.872Z,15.40
2018-06-24T11:09:11.284Z,14.90
2018-06-24T11:11:39.170Z,14.90
2018-06-24T11:14:06.958Z,14.90
2018-06-24T11:16:35.254Z,14.80
2018-06-24T11:19:03.196Z,15.00
2018-06-24T11:21:31.155Z,15.20
2018-06-24T11:23:59.153Z,15.70
2018-06-24T11:26:26.903Z,16.10
2018-06-24T11:31:22.100Z,16.40
2018-06-24T11:33:50.425Z,16.50
2018-06-24T11:36:18.160Z,16.20
2018-06-24T11:38:45.940Z,16.00
2018-06-24T11:41:13.970Z,15.80
2018-06-24T11:43:41.783Z,15.40
2018-06-24T11:46:09.537Z,15.20
2018-06-24T11:48:37.540Z,15.00
2018-06-24T11:51:05.240Z,15.10
2018-06-24T11:56:00.708Z,15.60
2018-06-24T11:58:28.416Z,15.80
2018-06-24T12:00:56.133Z,15.90
2018-06-24T12:03:23.851Z,16.10
2018-06-24T12:08:19.135Z,16.40
2018-06-24T12:10:46.926Z,16.50
2018-06-24T12:13:14.619Z,16.30
2018-06-24T12:15:42.518Z,16.30
2018-06-24T12:18:10.290Z,16.10
2018-06-24T12:20:38.053Z,16.00
2018-06-24T12:23:05.879Z,16.00
2018-06-24T12:25:33.735Z,16.20
2018-06-24T12:28:01.546Z,16.30
2018-06-24T12:30:29.280Z,16.30
2018-06-24T12:32:57.110Z,16.50
2018-06-24T12:35:24.928Z,16.60
2018-06-24T12:37:52.656Z,16.80
2018-06-24T12:40:38.405Z,16.90
2018-06-24T12:43:06.151Z,17.10
2018-06-24T12:45:34.314Z,17.10
2018-06-24T12:48:02.193Z,17.10
2018-06-24T12:50:30.053Z,17.00
2018-06-24T12:52:58.345Z,17.00
2018-06-24T12:55:26.169Z,17.00
2018-06-24T12:57:54.560Z,17.10
2018-06-24T13:00:22.861Z,17.10
2018-06-24T13:02:50.078Z,16.80
2018-06-24T13:05:17.972Z,16.60
2018-06-24T13:07:45.704Z,16.60
2018-06-24T13:10:13.436Z,16.50
2018-06-24T13:17:36.576Z,16.50
2018-06-24T13:20:04.589Z,16.70
2018-06-24T13:22:32.280Z,16.80
2018-06-24T13:25:00.071Z,16.90
2018-06-24T13:27:27.865Z,16.70
2018-06-24T13:29:55.763Z,16.50
2018-06-24T13:34:51.226Z,16.20
2018-06-24T13:37:18.962Z,16.00
2018-06-24T13:39:46.752Z,16.00
2018-06-24T13:42:14.578Z,16.10
2018-06-24T13:47:09.821Z,16.20
2018-06-24T13:49:37.613Z,16.10
2018-06-24T13:52:05.359Z,16.10
2018-06-24T13:54:33.193Z,16.30
2018-06-24T13:57:01.001Z,16.40
2018-06-24T13:59:28.781Z,16.50
2018-06-24T14:01:56.619Z,16.60
2018-06-24T14:04:24.507Z,16.40
2018-06-24T14:06:52.341Z,16.40
2018-06-24T14:09:20.068Z,16.30
2018-06-24T14:14:15.309Z,16.30
2018-06-24T14:16:43.091Z,16.50
2018-06-24T14:19:10.917Z,16.70
2018-06-24T14:24:06.271Z,16.50
2018-06-24T14:26:34.054Z,16.40
2018-06-24T14:29:01.938Z,16.40
2018-06-24T14:31:29.574Z,16.20
2018-06-24T14:33:57.273Z,15.90
2018-06-24T14:36:25.063Z,15.90
2018-06-24T14:38:52.844Z,15.80
2018-06-24T14:41:20.650Z,15.70
2018-06-24T14:43:48.345Z,15.60
2018-06-24T14:46:16.391Z,15.70
2018-06-24T14:48:44.191Z,15.90
2018-06-24T14:51:11.969Z,16.40
2018-06-24T14:53:39.766Z,16.90
2018-06-24T14:56:07.502Z,17.00
2018-06-24T14:58:35.216Z,16.70
2018-06-24T15:01:03.070Z,16.40
2018-06-24T15:03:31.854Z,16.10
2018-06-24T15:05:59.666Z,15.80
2018-06-24T15:08:27.465Z,15.70
2018-06-24T15:10:55.201Z,15.70
2018-06-24T15:13:23.094Z,15.90
2018-06-24T15:15:51.049Z,15.90
2018-06-24T15:18:18.897Z,15.90
2018-06-24T15:23:14.564Z,15.80
2018-06-24T15:25:42.244Z,15.70
2018-06-24T15:28:09.944Z,15.60
2018-06-24T15:30:38.043Z,15.70
2018-06-24T15:33:05.903Z,15.60
2018-06-24T15:35:33.777Z,15.60
2018-06-24T15:38:03.894Z,15.40
2018-06-24T15:40:31.693Z,15.50
2018-06-24T15:42:59.417Z,15.30
2018-06-24T15:45:27.377Z,15.10
2018-06-24T15:47:55.179Z,15.00
2018-06-24T15:50:22.896Z,15.00
2018-06-24T15:52:50.692Z,15.20
2018-06-24T15:55:18.643Z,15.40
2018-06-24T15:57:46.369Z,15.50
2018-06-24T16:02:41.958Z,16.30
2018-06-24T16:05:09.665Z,17.00
2018-06-24T16:07:37.546Z,17.40
2018-06-24T16:10:05.601Z,17.50
2018-06-24T16:12:33.296Z,17.70
2018-06-24T16:15:01.080Z,17.40
2018-06-24T16:17:28.824Z,17.20
2018-06-24T16:19:56.623Z,17.20
2018-06-24T16:22:24.422Z,17.00
2018-06-24T16:27:20.986Z,16.90
2018-06-24T16:29:48.883Z,16.90
2018-06-24T16:32:16.740Z,16.80
2018-06-24T16:34:44.585Z,16.60
2018-06-24T16:37:12.394Z,16.60
2018-06-24T16:39:40.096Z,16.60
2018-06-24T16:42:07.912Z,16.70
2018-06-24T16:44:35.625Z,17.00
2018-06-24T16:49:30.856Z,17.70
2018-06-24T16:51:58.657Z,17.90
2018-06-24T16:54:26.388Z,17.90
2018-06-24T16:56:54.322Z,18.00
2018-06-24T16:59:22.027Z,18.20
2018-06-24T17:01:49.778Z,18.40
2018-06-24T17:04:17.728Z,18.00
2018-06-24T17:06:45.616Z,17.90
2018-06-24T17:09:13.390Z,17.40
2018-06-24T17:11:41.166Z,17.00
2018-06-24T17:14:08.915Z,16.50
2018-06-24T17:16:37.099Z,15.90
2018-06-24T17:19:05.188Z,15.40
2018-06-24T17:21:33.099Z,15.10
2018-06-24T17:24:00.890Z,14.80
2018-06-24T17:26:28.881Z,14.90
2018-06-24T17:28:56.613Z,14.90
2018-06-24T17:31:24.288Z,15.00
2018-06-24T17:33:52.316Z,14.90
2018-06-24T17:36:20.133Z,14.80
2018-06-24T17:38:47.929Z,14.80
2018-06-24T17:41:15.780Z,14.80
2018-06-24T17:43:43.513Z,14.70
2018-06-24T17:46:11.303Z,14.70
2018-06-24T17:48:39.078Z,14.70
2018-06-24T17:51:06.969Z,14.80
2018-06-24T17:53:35.040Z,15.00
2018-06-24T17:56:03.819Z,15.10
2018-06-24T17:58:31.600Z,15.30
2018-06-24T18:00:59.285Z,15.40
2018-06-24T18:03:27.040Z,15.40
2018-06-24T18:05:54.834Z,15.40
2018-06-24T18:08:22.624Z,15.40
2018-06-24T18:10:50.714Z,15.30
2018-06-24T18:15:46.080Z,15.00
2018-06-24T18:18:13.968Z,15.10
2018-06-24T18:20:41.743Z,15.10
2018-06-24T18:23:09.532Z,15.00
2018-06-24T18:28:05.037Z,14.90
2018-06-24T18:30:32.876Z,14.80
2018-06-24T18:33:00.664Z,14.80
2018-06-24T18:35:30.560Z,14.80
2018-06-24T18:37:58.293Z,14.90
2018-06-24T18:40:26.089Z,14.80
2018-06-24T18:42:53.839Z,14.70
2018-06-24T18:45:21.841Z,14.60
2018-06-24T18:47:49.603Z,14.60
2018-06-24T18:50:17.439Z,14.50
2018-06-24T18:52:45.202Z,14.60
2018-06-24T18:55:13.110Z,14.50
2018-06-24T18:57:40.933Z,14.50
2018-06-24T19:00:08.695Z,14.50
2018-06-24T19:02:36.544Z,14.50
2018-06-24T19:05:04.725Z,14.50
2018-06-24T19:07:32.584Z,14.50
2018-06-24T19:10:00.379Z,14.50
2018-06-24T19:12:28.150Z,14.40
2018-06-24T19:14:56.040Z,14.40
2018-06-24T19:17:23.814Z,14.30
2018-06-24T19:19:51.951Z,14.30
2018-06-24T19:22:19.460Z,14.30
2018-06-24T19:24:47.258Z,14.30
2018-06-24T19:27:15.249Z,14.30
2018-06-24T19:29:43.309Z,14.30
2018-06-24T19:32:11.159Z,14.20
2018-06-24T19:34:39.140Z,14.30
2018-06-24T19:37:06.868Z,14.30
2018-06-24T19:39:34.707Z,14.20
2018-06-24T19:42:02.750Z,14.20
2018-06-24T19:44:30.786Z,14.20
2018-06-24T19:46:58.663Z,14.20
2018-06-24T19:49:26.436Z,14.20
2018-06-24T19:51:54.306Z,14.10
2018-06-24T19:54:22.166Z,14.10
2018-06-24T19:56:50.050Z,14.10
2018-06-24T19:59:17.876Z,14.10
2018-06-24T20:01:45.577Z,14.10
2018-06-24T20:04:14.047Z,14.00
2018-06-24T20:06:41.786Z,14.00
2018-06-24T20:09:10.482Z,14.00
2018-06-24T20:11:38.297Z,13.90
2018-06-24T20:14:06.241Z,13.90
2018-06-24T20:16:34.031Z,13.90
2018-06-24T20:19:01.851Z,13.90
2018-06-24T20:21:29.675Z,13.90
2018-06-24T20:23:57.577Z,13.90
2018-06-24T20:26:25.302Z,13.90
2018-06-24T20:28:53.084Z,13.90
2018-06-24T20:31:20.818Z,13.80
2018-06-24T20:36:16.162Z,13.80
2018-06-24T20:38:43.878Z,13.80
2018-06-24T20:41:11.625Z,13.80
2018-06-24T20:43:40.379Z,13.80
2018-06-24T20:46:08.191Z,13.80
2018-06-24T20:48:36.036Z,13.80
2018-06-24T20:51:03.804Z,13.90
2018-06-24T20:53:31.551Z,13.90
2018-06-24T20:55:59.274Z,13.80
2018-06-24T20:58:26.996Z,13.80
2018-06-24T21:00:54.876Z,13.80
2018-06-24T21:03:22.659Z,13.70
2018-06-24T21:05:50.480Z,13.70
2018-06-24T21:08:18.228Z,13.60
2018-06-24T21:10:46.038Z,13.60
2018-06-24T21:13:13.790Z,13.60
2018-06-24T21:15:41.571Z,13.50
2018-06-24T21:18:09.297Z,13.50
2018-06-24T21:20:36.985Z,13.40
2018-06-24T21:23:04.770Z,13.40
2018-06-24T21:25:33.287Z,13.30
2018-06-24T21:28:01.278Z,13.30
2018-06-24T21:30:29.012Z,13.20
2018-06-24T21:32:56.920Z,13.10
2018-06-24T21:35:26.139Z,13.10
2018-06-24T21:37:53.821Z,13.00
2018-06-24T21:40:21.686Z,13.00
2018-06-24T21:45:17.548Z,13.00
2018-06-24T21:47:45.313Z,13.00
2018-06-24T21:50:13.070Z,13.00
2018-06-24T21:52:40.812Z,13.10
2018-06-24T21:57:36.258Z,13.10
2018-06-24T22:00:06.057Z,13.10
2018-06-24T22:02:33.780Z,13.10
2018-06-24T22:05:01.611Z,13.20
2018-06-24T22:07:29.380Z,13.20
2018-06-24T22:09:57.131Z,13.10
2018-06-24T22:12:25.243Z,13.10
2018-06-24T22:14:52.939Z,13.20
2018-06-24T22:17:20.738Z,13.10
2018-06-24T22:19:48.612Z,13.10
2018-06-24T22:22:16.465Z,13.20
2018-06-24T22:24:44.427Z,13.20
2018-06-24T22:27:12.269Z,13.20
2018-06-24T22:32:07.592Z,13.20
2018-06-24T22:37:02.849Z,13.20
2018-06-24T22:39:30.623Z,13.10
2018-06-24T22:41:58.665Z,13.10
2018-06-24T22:44:26.426Z,13.20
2018-06-24T22:46:54.213Z,13.20
2018-06-24T22:49:21.898Z,13.20
2018-06-24T22:51:49.619Z,13.20
2018-06-24T22:54:17.710Z,13.10
2018-06-24T22:56:45.464Z,13.10
2018-06-24T22:59:18.993Z,13.00
2018-06-24T23:01:46.704Z,13.10
2018-06-24T23:04:14.509Z,13.10
2018-06-24T23:06:42.483Z,13.10
2018-06-24T23:09:10.199Z,13.10
2018-06-24T23:11:38.789Z,13.10
2018-06-24T23:14:06.697Z,13.10
2018-06-24T23:16:34.507Z,13.10
2018-06-24T23:19:02.430Z,13.10
2018-06-24T23:21:30.236Z,13.10
2018-06-24T23:23:57.940Z,13.10
2018-06-24T23:26:25.928Z,13.10
2018-06-24T23:28:53.630Z,13.00
2018-06-24T23:31:21.381Z,13.10
2018-06-24T23:33:49.428Z,13.00
2018-06-24T23:36:17.121Z,13.10
2018-06-24T23:38:44.817Z,13.20
2018-06-24T23:41:12.902Z,13.20
2018-06-24T23:43:40.732Z,13.20
2018-06-24T23:46:08.813Z,13.10
2018-06-24T23:48:36.601Z,13.10
2018-06-24T23:51:04.446Z,13.10
2018-06-24T23:53:32.200Z,13.20
2018-06-24T23:55:59.990Z,13.10
2018-06-24T23:58:27.728Z,13.10
